(°C)
11°
(°C)
شرق
ESE
SE
SE
SE
SE
SE
(كم/سا)
8-14
7-13
6-12
6-12
6-11
6-10
6-9
(مم)
0
0
0
0
0
0
0
(%)
3
4
5
4
4
4
3

مستوى ارتفاع الشمس

/ -21.1°
sun-icon
UV 13
06:15
20:03
قمر المساء (250°)
23:10
12:34

متر لوالدن (K33V)

الوقت الشروط درجة الحرارة/
نقطة الندى
رياح مجال رؤية حالة الطقس غيوم الضغط تغيير خام
VFR 13°C / 1°C 90º 5kt >10km - Clear - K33V 180355Z AUTO 09005KT 10SM CLR 13/01 A3044 RMK AO1
VFR 12°C / 1°C 60º 5kt >10km - Clear - K33V 180335Z AUTO 06005KT 10SM CLR 12/01 A3045 RMK AO1
VFR 13°C / 0°C 50º 8kt >10km - Clear - K33V 180315Z AUTO 05008KT 10SM CLR 13/00 A3044 RMK AO1
VFR 14°C / 0°C 60º 8kt >10km - Clear - K33V 180255Z AUTO 06008KT 10SM CLR 14/00 A3044 RMK AO1
VFR 13°C / 0°C 60º 7kt >10km - Clear - K33V 180235Z AUTO 06007KT 10SM CLR 13/00 A3043 RMK AO1
VFR 15°C / 0°C 50º 8kt >10km - Clear - K33V 180215Z AUTO 05008KT 10SM CLR 15/00 A3043 RMK AO1
VFR 18°C / 0°C 50º 7kt >10km - Clear - K33V 180155Z AUTO 05007KT 10SM CLR 18/00 A3042 RMK AO1
VFR 20°C / -1°C 50º 11kt >10km - Clear - K33V 180135Z AUTO 05011KT 10SM CLR 20/M01 A3042 RMK AO1
VFR 21°C / -1°C 40º 12kt Gust 16kt >10km - Clear - K33V 180115Z AUTO 04012G16KT 10SM CLR 21/M01 A3042 RMK AO1
VFR 21°C / -1°C 60º 11kt Gust 18kt >10km - Clear - K33V 180055Z AUTO 06011G18KT 10SM CLR 21/M01 A3042 RMK AO1
VFR 22°C / 0°C 50º 14kt Gust 17kt >10km - Clear - K33V 180035Z AUTO 05014G17KT 10SM CLR 22/00 A3042 RMK AO1
VFR 22°C / 0°C 40º 15kt Gust 19kt >10km - Clear - K33V 180015Z AUTO 04015G19KT 10SM CLR 22/00 A3042 RMK AO1
VFR 23°C / 0°C 60º 11kt Gust 14kt >10km - Clear - K33V 172355Z AUTO 06011G14KT 10SM CLR 23/00 A3042 RMK AO1
VFR 23°C / -1°C 50º 10kt Gust 16kt >10km - Clear - K33V 172335Z AUTO 05010G16KT 10SM CLR 23/M01 A3042 RMK AO1
VFR 23°C / -2°C 40º 8kt >10km - Clear - K33V 172315Z AUTO 04008KT 10SM CLR 23/M02 A3042 RMK AO1
VFR 23°C / 0°C 50º 7kt Gust 15kt >10km - Clear - K33V 172255Z AUTO 05007G15KT 10SM CLR 23/00 A3042 RMK AO1
VFR 23°C / 0°C 30º 6kt Gust 14kt >10km - Clear - K33V 172235Z AUTO 03006G14KT 10SM CLR 23/00 A3042 RMK AO1
VFR 23°C / 0°C 20º 12kt Gust 17kt >10km - Clear - K33V 172215Z AUTO 02012G17KT 10SM CLR 23/00 A3042 RMK AO1
VFR 23°C / -1°C 40º 9kt >10km - Clear - K33V 172155Z AUTO 04009KT 10SM CLR 23/M01 A3043 RMK AO1
VFR 23°C / -1°C 360º 8kt >10km - Clear - K33V 172135Z AUTO 36008KT 10SM CLR 23/M01 A3043 RMK AO1
VFR 22°C / -2°C 30º 8kt Gust 14kt >10km - Clear - K33V 172115Z AUTO 03008G14KT 10SM CLR 22/M02 A3044 RMK AO1
VFR 23°C / 0°C 80º variable 020º to 100º 5kt >10km - Clear - K33V 172055Z AUTO 08005KT 020V100 10SM CLR 23/00 A3044 RMK AO1
VFR 22°C / -2°C 30º variable 340º to 040º 8kt Gust 16kt >10km - Clear - K33V 172035Z AUTO 03008G16KT 340V040 10SM CLR 22/M02 A3044 RMK AO1
VFR 23°C / -2°C 20º 8kt Gust 21kt >10km - Clear - K33V 172015Z AUTO 02008G21KT 10SM CLR 23/M02 A3044 RMK AO1

VFR

13°C / 1°C

[أكثر]
رياح 90º 5kt
مجال رؤية >10km
حالة الطقس -
غيوم Clear
الضغط
تغيير -
خام K33V 180355Z AUTO 09005KT 10SM CLR 13/01 A3044 RMK AO1

VFR

12°C / 1°C

[أكثر]
رياح 60º 5kt
مجال رؤية >10km
حالة الطقس -
غيوم Clear
الضغط
تغيير -
خام K33V 180335Z AUTO 06005KT 10SM CLR 12/01 A3045 RMK AO1

VFR

13°C / 0°C

[أكثر]
رياح 50º 8kt
مجال رؤية >10km
حالة الطقس -
غيوم Clear
الضغط
تغيير -
خام K33V 180315Z AUTO 05008KT 10SM CLR 13/00 A3044 RMK AO1

VFR

14°C / 0°C

[أكثر]
رياح 60º 8kt
مجال رؤية >10km
حالة الطقس -
غيوم Clear
الضغط
تغيير -
خام K33V 180255Z AUTO 06008KT 10SM CLR 14/00 A3044 RMK AO1

VFR

13°C / 0°C

[أكثر]
رياح 60º 7kt
مجال رؤية >10km
حالة الطقس -
غيوم Clear
الضغط
تغيير -
خام K33V 180235Z AUTO 06007KT 10SM CLR 13/00 A3043 RMK AO1

VFR

15°C / 0°C

[أكثر]
رياح 50º 8kt
مجال رؤية >10km
حالة الطقس -
غيوم Clear
الضغط
تغيير -
خام K33V 180215Z AUTO 05008KT 10SM CLR 15/00 A3043 RMK AO1

VFR

18°C / 0°C

[أكثر]
رياح 50º 7kt
مجال رؤية >10km
حالة الطقس -
غيوم Clear
الضغط
تغيير -
خام K33V 180155Z AUTO 05007KT 10SM CLR 18/00 A3042 RMK AO1

VFR

20°C / -1°C

[أكثر]
رياح 50º 11kt
مجال رؤية >10km
حالة الطقس -
غيوم Clear
الضغط
تغيير -
خام K33V 180135Z AUTO 05011KT 10SM CLR 20/M01 A3042 RMK AO1

VFR

21°C / -1°C

[أكثر]
رياح 40º 12kt Gust 16kt
مجال رؤية >10km
حالة الطقس -
غيوم Clear
الضغط
تغيير -
خام K33V 180115Z AUTO 04012G16KT 10SM CLR 21/M01 A3042 RMK AO1

VFR

21°C / -1°C

[أكثر]
رياح 60º 11kt Gust 18kt
مجال رؤية >10km
حالة الطقس -
غيوم Clear
الضغط
تغيير -
خام K33V 180055Z AUTO 06011G18KT 10SM CLR 21/M01 A3042 RMK AO1

VFR

22°C / 0°C

[أكثر]
رياح 50º 14kt Gust 17kt
مجال رؤية >10km
حالة الطقس -
غيوم Clear
الضغط
تغيير -
خام K33V 180035Z AUTO 05014G17KT 10SM CLR 22/00 A3042 RMK AO1

VFR

22°C / 0°C

[أكثر]
رياح 40º 15kt Gust 19kt
مجال رؤية >10km
حالة الطقس -
غيوم Clear
الضغط
تغيير -
خام K33V 180015Z AUTO 04015G19KT 10SM CLR 22/00 A3042 RMK AO1

VFR

23°C / 0°C

[أكثر]
رياح 60º 11kt Gust 14kt
مجال رؤية >10km
حالة الطقس -
غيوم Clear
الضغط
تغيير -
خام K33V 172355Z AUTO 06011G14KT 10SM CLR 23/00 A3042 RMK AO1

VFR

23°C / -1°C

[أكثر]
رياح 50º 10kt Gust 16kt
مجال رؤية >10km
حالة الطقس -
غيوم Clear
الضغط
تغيير -
خام K33V 172335Z AUTO 05010G16KT 10SM CLR 23/M01 A3042 RMK AO1

VFR

23°C / -2°C

[أكثر]
رياح 40º 8kt
مجال رؤية >10km
حالة الطقس -
غيوم Clear
الضغط
تغيير -
خام K33V 172315Z AUTO 04008KT 10SM CLR 23/M02 A3042 RMK AO1

VFR

23°C / 0°C

[أكثر]
رياح 50º 7kt Gust 15kt
مجال رؤية >10km
حالة الطقس -
غيوم Clear
الضغط
تغيير -
خام K33V 172255Z AUTO 05007G15KT 10SM CLR 23/00 A3042 RMK AO1

VFR

23°C / 0°C

[أكثر]
رياح 30º 6kt Gust 14kt
مجال رؤية >10km
حالة الطقس -
غيوم Clear
الضغط
تغيير -
خام K33V 172235Z AUTO 03006G14KT 10SM CLR 23/00 A3042 RMK AO1

VFR

23°C / 0°C

[أكثر]
رياح 20º 12kt Gust 17kt
مجال رؤية >10km
حالة الطقس -
غيوم Clear
الضغط
تغيير -
خام K33V 172215Z AUTO 02012G17KT 10SM CLR 23/00 A3042 RMK AO1

VFR

23°C / -1°C

[أكثر]
رياح 40º 9kt
مجال رؤية >10km
حالة الطقس -
غيوم Clear
الضغط
تغيير -
خام K33V 172155Z AUTO 04009KT 10SM CLR 23/M01 A3043 RMK AO1

VFR

23°C / -1°C

[أكثر]
رياح 360º 8kt
مجال رؤية >10km
حالة الطقس -
غيوم Clear
الضغط
تغيير -
خام K33V 172135Z AUTO 36008KT 10SM CLR 23/M01 A3043 RMK AO1

VFR

22°C / -2°C

[أكثر]
رياح 30º 8kt Gust 14kt
مجال رؤية >10km
حالة الطقس -
غيوم Clear
الضغط
تغيير -
خام K33V 172115Z AUTO 03008G14KT 10SM CLR 22/M02 A3044 RMK AO1

VFR

23°C / 0°C

[أكثر]
رياح 80º variable 020º to 100º 5kt
مجال رؤية >10km
حالة الطقس -
غيوم Clear
الضغط
تغيير -
خام K33V 172055Z AUTO 08005KT 020V100 10SM CLR 23/00 A3044 RMK AO1

VFR

22°C / -2°C

[أكثر]
رياح 30º variable 340º to 040º 8kt Gust 16kt
مجال رؤية >10km
حالة الطقس -
غيوم Clear
الضغط
تغيير -
خام K33V 172035Z AUTO 03008G16KT 340V040 10SM CLR 22/M02 A3044 RMK AO1

VFR

23°C / -2°C

[أكثر]
رياح 20º 8kt Gust 21kt
مجال رؤية >10km
حالة الطقس -
غيوم Clear
الضغط
تغيير -
خام K33V 172015Z AUTO 02008G21KT 10SM CLR 23/M02 A3044 RMK AO1

رادار وهطول الأمطار التنبؤ الآني لوالدن

رذاذ
ضوء
معتدل
ثقيل
ثقيل جدا
وابل

مؤشر المكان يشير الى والدن. تظهر في هذه الرسوم المتحركة هطول الامطار بالرادار للساعة الماضية, و توقعات 1h. رذاذ أو تساقط ثلوج خفيف قد يكون غير مرئي للرادار. كثافة هطول الأمطار مرمزة بالألوان وتتراوح من الأزرق الفاتح إلى البرتقالي.

صور الأقمار الصناعية الملتقطة حالياً لوالدن, الولايات المتحدة الأمريكية

المؤشر يدل على موقع والدن. [أكثر]

تجمع صورة الأقمار الصناعية في الوقت الفعلي بين الضوء المرئي أثناء النهار والأشعة تحت الحمراء أثناء الليل. لا تبدو الصورة مظلمة ليلاً، لأن الأشعة تحت الحمراء يمكنها الكشف عن الاختلافات في درجة الحرارة. لسوء الحظ ، يصعب التمييز بين السحب المنخفضة والضباب ودرجات حرارة الأرض ، وبالتالي يمكن أن تكون الصور غير مرئية تقريبًا أثناء الليل. يتم تحديث صور الأقمار الصناعية Meteosat الخاصة بأوروبا في الوقت الفعلي كل 5 دقائق، بينما يتم تحديث صور GOES-16 / GOES-17 (أمريكا الشمالية والجنوبية) و Himawari (آسيا) كل 10 دقائق.

العودة الى الأعلى